createdAt,value
2023-09-07T00:01:28.896Z,19.79
2023-09-07T00:05:33.952Z,19.75
2023-09-07T00:09:37.749Z,19.70
2023-09-07T00:13:41.557Z,19.66
2023-09-07T00:17:45.554Z,19.63
2023-09-07T00:21:53.658Z,19.60
2023-09-07T00:25:57.208Z,19.56
2023-09-07T00:30:00.836Z,19.53
2023-09-07T00:34:03.967Z,19.47
2023-09-07T00:38:09.643Z,19.43
2023-09-07T00:42:13.458Z,19.36
2023-09-07T00:46:17.871Z,19.30
2023-09-07T00:50:21.702Z,19.22
2023-09-07T00:54:27.558Z,19.18
2023-09-07T00:58:31.207Z,19.14
2023-09-07T01:02:35.360Z,19.10
2023-09-07T01:06:42.158Z,19.07
2023-09-07T01:10:47.415Z,19.02
2023-09-07T01:14:51.219Z,18.96
2023-09-07T01:18:55.981Z,18.89
2023-09-07T01:23:02.226Z,18.82
2023-09-07T01:27:07.641Z,18.75
2023-09-07T01:31:11.304Z,18.69
2023-09-07T01:35:18.342Z,18.65
2023-09-07T01:39:23.432Z,18.62
2023-09-07T01:43:26.825Z,18.60
2023-09-07T01:47:30.814Z,18.59
2023-09-07T01:51:34.953Z,18.60
2023-09-07T01:55:40.267Z,18.58
2023-09-07T01:59:43.509Z,18.56
2023-09-07T02:03:46.954Z,18.53
2023-09-07T02:07:52.358Z,18.50
2023-09-07T02:11:57.472Z,18.50
2023-09-07T02:16:01.165Z,18.48
2023-09-07T02:20:10.846Z,18.45
2023-09-07T02:24:14.769Z,18.42
2023-09-07T02:28:19.799Z,18.37
2023-09-07T02:32:23.298Z,18.33
2023-09-07T02:36:26.894Z,18.28
2023-09-07T02:40:30.612Z,18.22
2023-09-07T02:44:36.023Z,18.17
2023-09-07T02:48:39.214Z,18.12
2023-09-07T02:52:42.576Z,18.11
2023-09-07T02:56:45.841Z,18.11
2023-09-07T03:00:51.610Z,18.14
2023-09-07T03:05:00.325Z,18.15
2023-09-07T03:09:03.660Z,18.14
2023-09-07T03:13:07.472Z,18.12
2023-09-07T03:17:12.842Z,18.10
2023-09-07T03:21:16.276Z,18.05
2023-09-07T03:25:19.732Z,18.00
2023-09-07T03:29:23.255Z,17.95
2023-09-07T03:33:28.302Z,17.95
2023-09-07T03:37:32.486Z,17.93
2023-09-07T03:41:36.151Z,17.92
2023-09-07T03:45:39.333Z,17.89
2023-09-07T03:49:44.313Z,17.87
2023-09-07T03:53:48.136Z,17.81
2023-09-07T03:57:51.498Z,17.77
2023-09-07T04:01:56.916Z,17.73
2023-09-07T04:06:03.216Z,17.70
2023-09-07T04:10:07.755Z,17.66
2023-09-07T04:14:11.509Z,17.63
2023-09-07T04:18:16.690Z,17.60
2023-09-07T04:22:21.845Z,17.58
2023-09-07T04:26:25.463Z,17.53
2023-09-07T04:30:29.263Z,17.48
2023-09-07T04:34:33.196Z,17.42
2023-09-07T04:38:38.828Z,17.37
2023-09-07T04:42:42.246Z,17.32
2023-09-07T04:46:46.429Z,17.28
2023-09-07T04:50:50.193Z,17.24
2023-09-07T04:54:55.432Z,17.23
2023-09-07T04:58:58.772Z,17.22
2023-09-07T05:03:02.521Z,17.25
2023-09-07T05:07:06.763Z,17.30
2023-09-07T05:11:11.651Z,17.36
2023-09-07T05:15:14.989Z,17.43
2023-09-07T05:19:19.109Z,17.52
2023-09-07T05:23:24.163Z,17.62
2023-09-07T05:27:29.855Z,17.75
2023-09-07T05:31:33.110Z,17.85
2023-09-07T05:35:37.236Z,17.99
2023-09-07T05:39:40.341Z,18.13
2023-09-07T05:43:45.717Z,18.26
2023-09-07T05:47:48.986Z,18.40
2023-09-07T05:56:04.433Z,18.72
2023-09-07T06:00:11.097Z,18.86
2023-09-07T06:04:15.550Z,18.99
2023-09-07T06:08:19.396Z,19.12
2023-09-07T06:12:22.991Z,19.26
2023-09-07T06:16:27.941Z,19.41
2023-09-07T06:20:31.835Z,19.53
2023-09-07T06:24:35.123Z,19.68
2023-09-07T06:28:39.018Z,19.81
2023-09-07T06:32:45.074Z,19.96
2023-09-07T06:36:49.000Z,20.10
2023-09-07T06:40:52.660Z,20.24
2023-09-07T06:44:56.545Z,20.40
2023-09-07T06:49:01.455Z,20.56
2023-09-07T06:53:05.946Z,20.74
2023-09-07T06:57:09.361Z,20.95
2023-09-07T07:01:13.283Z,21.16
2023-09-07T07:05:18.804Z,21.37
2023-09-07T07:09:22.300Z,21.60
2023-09-07T07:13:25.859Z,21.84
2023-09-07T07:17:30.116Z,22.16
2023-09-07T07:21:35.838Z,22.59
2023-09-07T07:25:39.381Z,23.10
2023-09-07T07:29:43.338Z,23.66
2023-09-07T07:33:46.565Z,24.25
2023-09-07T07:37:53.381Z,24.84
2023-09-07T07:41:56.811Z,25.39
2023-09-07T07:46:01.058Z,25.94
2023-09-07T07:50:04.466Z,26.47
2023-09-07T07:54:10.140Z,26.96
2023-09-07T07:58:13.837Z,27.39
2023-09-07T08:02:18.395Z,27.73
2023-09-07T08:06:22.010Z,27.95
2023-09-07T08:10:29.472Z,28.15
2023-09-07T08:14:35.204Z,28.33
2023-09-07T08:18:39.801Z,28.47
2023-09-07T08:22:43.659Z,28.65
2023-09-07T08:26:52.791Z,28.85
2023-09-07T08:30:56.513Z,29.05
2023-09-07T08:35:02.814Z,29.25
2023-09-07T08:39:09.918Z,29.45
2023-09-07T08:43:16.880Z,29.70
2023-09-07T08:47:21.422Z,29.88
2023-09-07T08:51:25.853Z,30.05
2023-09-07T08:55:29.946Z,30.18
2023-09-07T08:59:34.915Z,30.26
2023-09-07T09:03:38.677Z,30.35
2023-09-07T09:07:42.385Z,30.46
2023-09-07T09:11:46.175Z,30.56
2023-09-07T09:15:52.211Z,30.74
2023-09-07T09:19:55.914Z,30.94
2023-09-07T09:24:01.545Z,31.20
2023-09-07T09:28:05.771Z,31.44
2023-09-07T09:32:11.481Z,31.67
2023-09-07T09:36:15.205Z,31.85
2023-09-07T09:40:19.008Z,31.97
2023-09-07T09:44:27.299Z,32.12
2023-09-07T09:48:34.559Z,32.30
2023-09-07T09:52:39.744Z,32.50
2023-09-07T09:56:44.388Z,32.68
2023-09-07T10:00:51.122Z,32.83
2023-09-07T10:04:56.549Z,32.97
2023-09-07T10:09:02.502Z,33.06
2023-09-07T10:13:09.084Z,33.21
2023-09-07T10:17:13.165Z,33.33
2023-09-07T10:21:18.561Z,33.46
2023-09-07T10:25:24.522Z,33.57
2023-09-07T10:29:31.053Z,33.65
2023-09-07T10:33:35.656Z,33.64
2023-09-07T10:37:41.964Z,33.64
2023-09-07T10:41:47.414Z,33.65
2023-09-07T10:45:51.916Z,33.69
2023-09-07T10:50:00.808Z,33.77
2023-09-07T10:54:16.882Z,33.85
2023-09-07T10:58:30.976Z,33.93
2023-09-07T11:02:35.137Z,34.00
2023-09-07T11:06:39.411Z,34.11
2023-09-07T11:10:44.131Z,34.23
2023-09-07T11:14:50.558Z,34.28
2023-09-07T11:18:56.234Z,34.31
2023-09-07T11:23:05.274Z,34.33
2023-09-07T11:27:12.244Z,34.36
2023-09-07T11:31:17.176Z,34.35
2023-09-07T11:35:20.457Z,34.35
2023-09-07T11:39:24.297Z,34.35
2023-09-07T11:43:29.650Z,34.32
2023-09-07T11:47:33.894Z,34.28
2023-09-07T11:51:37.658Z,34.20
2023-09-07T11:55:43.129Z,34.21
2023-09-07T11:59:58.642Z,34.15
2023-09-07T12:04:04.425Z,34.14
2023-09-07T12:08:08.281Z,34.14
2023-09-07T12:12:13.189Z,34.17
2023-09-07T12:16:18.197Z,34.22
2023-09-07T12:20:23.423Z,34.22
2023-09-07T12:24:26.875Z,34.26
2023-09-07T12:28:30.759Z,34.16
2023-09-07T12:32:35.556Z,34.10
2023-09-07T12:36:49.714Z,33.98
2023-09-07T12:40:53.611Z,33.95
2023-09-07T12:44:57.324Z,34.02
2023-09-07T12:49:02.459Z,34.08
2023-09-07T12:53:06.455Z,34.15
2023-09-07T12:57:10.064Z,34.19
2023-09-07T13:01:16.753Z,34.22
2023-09-07T13:05:22.012Z,34.16
2023-09-07T13:09:25.269Z,34.10
2023-09-07T13:13:30.702Z,34.04
2023-09-07T13:17:35.157Z,34.03
2023-09-07T13:21:40.357Z,34.07
2023-09-07T13:25:44.339Z,34.10
2023-09-07T13:29:47.596Z,34.20
2023-09-07T13:33:51.782Z,34.31
2023-09-07T13:37:58.183Z,34.41
2023-09-07T13:42:02.559Z,34.45
2023-09-07T13:46:05.839Z,34.48
2023-09-07T13:50:10.391Z,34.52
2023-09-07T13:54:15.329Z,34.52
2023-09-07T13:58:18.883Z,34.51
2023-09-07T14:02:22.222Z,34.45
2023-09-07T14:06:26.328Z,34.44
2023-09-07T14:10:31.792Z,34.46
2023-09-07T14:14:35.369Z,34.45
2023-09-07T14:18:41.799Z,34.43
2023-09-07T14:22:45.284Z,34.37
2023-09-07T14:26:50.064Z,34.35
2023-09-07T14:30:55.616Z,34.30
2023-09-07T14:34:59.923Z,34.27
2023-09-07T14:39:04.067Z,34.22
2023-09-07T14:43:12.178Z,34.13
2023-09-07T14:47:15.732Z,34.06
2023-09-07T14:51:18.981Z,33.95
2023-09-07T14:55:22.188Z,33.87
2023-09-07T14:59:27.506Z,33.82
2023-09-07T15:03:30.842Z,33.79
2023-09-07T15:07:34.450Z,33.81
2023-09-07T15:11:38.159Z,33.84
2023-09-07T15:15:44.269Z,33.88
2023-09-07T15:19:48.172Z,33.86
2023-09-07T15:23:51.745Z,33.80
2023-09-07T15:27:55.512Z,33.68
2023-09-07T15:32:00.450Z,33.56
2023-09-07T15:36:03.910Z,33.40
2023-09-07T15:40:09.953Z,33.21
2023-09-07T15:44:13.471Z,33.06
2023-09-07T15:48:18.721Z,32.88
2023-09-07T15:52:22.984Z,32.69
2023-09-07T15:56:26.422Z,32.52
2023-09-07T16:00:30.890Z,32.38
2023-09-07T16:04:35.593Z,32.27
2023-09-07T16:08:38.971Z,32.14
2023-09-07T16:12:42.404Z,32.00
2023-09-07T16:16:46.119Z,31.86
2023-09-07T16:20:51.795Z,31.70
2023-09-07T16:24:55.349Z,31.51
2023-09-07T16:28:58.512Z,31.33
2023-09-07T16:33:02.289Z,31.11
2023-09-07T16:37:07.932Z,30.89
2023-09-07T16:41:11.675Z,30.65
2023-09-07T16:45:18.109Z,30.40
2023-09-07T16:49:21.607Z,30.15
2023-09-07T16:53:28.140Z,29.91
2023-09-07T16:57:31.344Z,29.66
2023-09-07T17:01:34.947Z,29.42
2023-09-07T17:05:40.891Z,29.17
2023-09-07T17:09:45.741Z,28.93
2023-09-07T17:14:01.047Z,28.69
2023-09-07T17:18:06.294Z,28.44
2023-09-07T17:22:10.443Z,28.20
2023-09-07T17:26:15.956Z,27.97
2023-09-07T17:30:20.973Z,27.76
2023-09-07T17:34:26.137Z,27.56
2023-09-07T17:38:33.477Z,27.33
2023-09-07T17:42:41.452Z,27.15
2023-09-07T17:46:46.273Z,26.97
2023-09-07T17:50:52.385Z,26.79
2023-09-07T17:54:56.922Z,26.64
2023-09-07T17:59:03.193Z,26.48
2023-09-07T18:03:09.541Z,26.33
2023-09-07T18:07:16.158Z,26.19
2023-09-07T18:11:21.131Z,26.02
2023-09-07T18:15:26.682Z,25.87
2023-09-07T18:19:30.541Z,25.72
2023-09-07T18:23:34.118Z,25.57
2023-09-07T18:27:37.503Z,25.43
2023-09-07T18:31:45.425Z,25.31
2023-09-07T18:35:49.364Z,25.19
2023-09-07T18:39:56.435Z,25.09
2023-09-07T18:44:03.392Z,24.98
2023-09-07T18:48:10.785Z,24.91
2023-09-07T18:52:15.517Z,24.83
2023-09-07T18:56:19.214Z,24.72
2023-09-07T19:00:23.664Z,24.63
2023-09-07T19:04:36.382Z,24.55
2023-09-07T19:08:39.916Z,24.44
2023-09-07T19:12:44.849Z,24.35
2023-09-07T19:16:51.194Z,24.26
2023-09-07T19:21:21.518Z,24.17
2023-09-07T19:25:27.642Z,24.07
2023-09-07T19:29:32.038Z,24.00
2023-09-07T19:33:38.199Z,23.96
2023-09-07T19:37:45.877Z,23.93
2023-09-07T19:41:51.563Z,23.88
2023-09-07T19:45:55.686Z,23.84
2023-09-07T19:49:59.887Z,23.76
2023-09-07T19:54:06.925Z,23.70
2023-09-07T19:58:14.716Z,23.62
2023-09-07T20:02:18.853Z,23.57
2023-09-07T20:06:27.979Z,23.49
2023-09-07T20:10:36.633Z,23.41
2023-09-07T20:14:41.308Z,23.35
2023-09-07T20:18:46.262Z,23.27
2023-09-07T20:22:52.601Z,23.20
2023-09-07T20:27:01.809Z,23.11
2023-09-07T20:31:07.148Z,23.01
2023-09-07T20:35:21.936Z,22.92
2023-09-07T20:39:26.255Z,22.81
2023-09-07T20:43:37.274Z,22.71
2023-09-07T20:47:40.686Z,22.59
2023-09-07T20:51:44.632Z,22.49
2023-09-07T20:55:49.919Z,22.40
2023-09-07T20:59:55.199Z,22.33
2023-09-07T21:03:59.101Z,22.25
2023-09-07T21:08:05.200Z,22.17
2023-09-07T21:12:12.898Z,22.11
2023-09-07T21:16:18.389Z,22.07
2023-09-07T21:20:21.988Z,22.05
2023-09-07T21:24:26.348Z,22.02
2023-09-07T21:28:30.053Z,22.00
2023-09-07T21:32:36.911Z,21.97
2023-09-07T21:36:43.513Z,21.92
2023-09-07T21:40:53.921Z,21.89
2023-09-07T21:44:59.314Z,21.82
2023-09-07T21:49:04.574Z,21.77
2023-09-07T21:53:08.077Z,21.70
2023-09-07T21:57:12.026Z,21.63
2023-09-07T22:01:16.346Z,21.56
2023-09-07T22:05:21.754Z,21.48
2023-09-07T22:09:27.848Z,21.41
2023-09-07T22:13:31.522Z,21.32
2023-09-07T22:17:35.636Z,21.24
2023-09-07T22:21:41.821Z,21.16
2023-09-07T22:25:45.530Z,21.10
2023-09-07T22:29:49.407Z,21.03
2023-09-07T22:33:53.009Z,20.94
2023-09-07T22:37:58.104Z,20.84
2023-09-07T22:42:01.335Z,20.74
2023-09-07T22:46:05.218Z,20.68
2023-09-07T22:50:10.130Z,20.65
2023-09-07T22:54:15.296Z,20.65
2023-09-07T22:58:21.842Z,20.68
2023-09-07T23:02:25.621Z,20.70
2023-09-07T23:06:29.605Z,20.71
2023-09-07T23:10:36.215Z,20.72
2023-09-07T23:14:39.610Z,20.71
2023-09-07T23:18:43.199Z,20.69
2023-09-07T23:22:46.529Z,20.64
2023-09-07T23:26:52.371Z,20.62
2023-09-07T23:30:56.217Z,20.57
2023-09-07T23:35:00.446Z,20.52
2023-09-07T23:39:03.876Z,20.48
2023-09-07T23:43:09.719Z,20.42
2023-09-07T23:47:12.954Z,20.39
2023-09-07T23:51:16.596Z,20.34
2023-09-07T23:55:20.034Z,20.28
2023-09-07T23:59:25.032Z,20.24
